createdAt,value
2018-09-05T00:01:49.471Z,13.90
2018-09-05T00:04:17.629Z,13.80
2018-09-05T00:06:45.782Z,13.70
2018-09-05T00:09:13.927Z,13.60
2018-09-05T00:11:42.121Z,13.50
2018-09-05T00:14:10.519Z,13.40
2018-09-05T00:16:38.866Z,13.40
2018-09-05T00:19:07.015Z,13.40
2018-09-05T00:21:35.238Z,13.40
2018-09-05T00:24:03.396Z,13.50
2018-09-05T00:26:31.542Z,13.60
2018-09-05T00:28:59.707Z,13.60
2018-09-05T00:31:27.919Z,13.50
2018-09-05T00:33:56.079Z,13.50
2018-09-05T00:36:24.252Z,13.40
2018-09-05T00:38:52.410Z,13.50
2018-09-05T00:41:20.541Z,13.50
2018-09-05T00:43:48.750Z,13.50
2018-09-05T00:46:16.917Z,13.50
2018-09-05T00:48:45.091Z,13.40
2018-09-05T00:51:13.237Z,13.40
2018-09-05T00:53:41.382Z,13.40
2018-09-05T00:56:09.550Z,13.30
2018-09-05T00:58:37.702Z,13.30
2018-09-05T01:01:05.934Z,13.30
2018-09-05T01:03:34.116Z,13.30
2018-09-05T01:06:02.274Z,13.40
2018-09-05T01:08:30.529Z,13.40
2018-09-05T01:10:58.701Z,13.40
2018-09-05T01:13:26.868Z,13.40
2018-09-05T01:15:55.046Z,13.50
2018-09-05T01:18:23.202Z,13.50
2018-09-05T01:20:51.400Z,13.60
2018-09-05T01:23:19.574Z,13.60
2018-09-05T01:25:47.747Z,13.60
2018-09-05T01:28:15.917Z,13.60
2018-09-05T01:30:44.080Z,13.60
2018-09-05T01:33:12.266Z,13.60
2018-09-05T01:35:40.425Z,13.50
2018-09-05T01:38:08.610Z,13.50
2018-09-05T01:40:36.806Z,13.50
2018-09-05T01:43:05.080Z,13.50
2018-09-05T01:45:33.290Z,13.60
2018-09-05T01:48:01.460Z,13.60
2018-09-05T01:50:35.087Z,13.60
2018-09-05T01:53:03.278Z,13.50
2018-09-05T01:55:31.430Z,13.50
2018-09-05T01:57:59.602Z,13.50
2018-09-05T02:00:33.179Z,13.50
2018-09-05T02:03:01.629Z,13.50
2018-09-05T02:05:29.896Z,13.50
2018-09-05T02:07:58.334Z,13.50
2018-09-05T02:10:26.490Z,13.50
2018-09-05T02:12:54.676Z,13.60
2018-09-05T02:15:22.842Z,13.60
2018-09-05T02:17:51.006Z,13.60
2018-09-05T02:20:19.179Z,13.50
2018-09-05T02:23:20.225Z,13.50
2018-09-05T02:25:48.393Z,13.20
2018-09-05T02:28:16.552Z,13.10
2018-09-05T02:30:44.714Z,13.00
2018-09-05T02:33:12.874Z,12.90
2018-09-05T02:35:41.037Z,12.80
2018-09-05T02:38:09.200Z,12.80
2018-09-05T02:40:37.384Z,12.80
2018-09-05T02:43:05.641Z,12.80
2018-09-05T02:45:33.805Z,12.80
2018-09-05T02:48:01.946Z,12.80
2018-09-05T02:50:30.111Z,12.80
2018-09-05T02:52:58.269Z,12.80
2018-09-05T02:56:03.634Z,12.80
2018-09-05T02:58:33.228Z,12.70
2018-09-05T03:01:01.384Z,12.70
2018-09-05T03:03:29.594Z,12.70
2018-09-05T03:05:58.200Z,12.70
2018-09-05T03:08:26.349Z,12.70
2018-09-05T03:10:54.510Z,12.70
2018-09-05T03:13:23.021Z,12.70
2018-09-05T03:15:51.178Z,12.70
2018-09-05T03:18:19.358Z,12.70
2018-09-05T03:20:47.502Z,12.70
2018-09-05T03:23:15.633Z,12.70
2018-09-05T03:25:43.809Z,12.60
2018-09-05T03:28:11.959Z,12.60
2018-09-05T03:30:40.556Z,12.50
2018-09-05T03:33:08.727Z,12.50
2018-09-05T03:35:36.848Z,12.50
2018-09-05T03:38:05.002Z,12.50
2018-09-05T03:40:33.153Z,12.50
2018-09-05T03:43:01.283Z,12.40
2018-09-05T03:45:29.425Z,12.40
2018-09-05T03:47:57.569Z,12.50
2018-09-05T03:50:25.714Z,12.40
2018-09-05T03:52:53.860Z,12.40
2018-09-05T03:55:22.003Z,12.40
2018-09-05T03:57:50.142Z,12.40
2018-09-05T04:00:18.325Z,12.40
2018-09-05T04:02:46.461Z,12.30
2018-09-05T04:05:14.657Z,12.30
2018-09-05T04:07:42.802Z,12.40
2018-09-05T04:10:15.996Z,12.40
2018-09-05T04:12:44.126Z,12.40
2018-09-05T04:15:12.325Z,12.50
2018-09-05T04:17:40.477Z,12.50
2018-09-05T04:20:09.250Z,12.50
2018-09-05T04:22:37.405Z,12.50
2018-09-05T04:25:05.537Z,12.60
2018-09-05T04:27:33.713Z,12.70
2018-09-05T04:30:01.853Z,12.70
2018-09-05T04:32:29.984Z,12.80
2018-09-05T04:34:58.187Z,12.70
2018-09-05T04:37:26.330Z,12.70
2018-09-05T04:39:54.475Z,12.60
2018-09-05T04:42:22.626Z,12.60
2018-09-05T04:44:50.770Z,12.50
2018-09-05T04:47:18.946Z,12.40
2018-09-05T04:49:47.089Z,12.30
2018-09-05T04:52:15.252Z,12.30
2018-09-05T04:54:43.379Z,12.20
2018-09-05T04:57:11.541Z,12.20
2018-09-05T04:59:39.678Z,12.10
2018-09-05T05:02:07.813Z,12.10
2018-09-05T05:04:35.962Z,12.10
2018-09-05T05:07:04.089Z,12.10
2018-09-05T05:09:32.318Z,12.20
2018-09-05T05:12:00.503Z,12.20
2018-09-05T05:14:35.274Z,12.30
2018-09-05T05:17:03.517Z,12.40
2018-09-05T05:19:31.660Z,12.40
2018-09-05T05:21:59.799Z,12.50
2018-09-05T05:24:27.930Z,12.50
2018-09-05T05:26:56.074Z,12.50
2018-09-05T05:29:24.218Z,12.60
2018-09-05T05:31:52.361Z,12.70
2018-09-05T05:34:20.515Z,12.80
2018-09-05T05:36:48.685Z,13.00
2018-09-05T05:39:16.841Z,13.00
2018-09-05T05:41:44.994Z,13.10
2018-09-05T05:44:13.174Z,13.20
2018-09-05T05:46:41.406Z,13.20
2018-09-05T05:49:09.500Z,13.40
2018-09-05T05:51:37.670Z,13.50
2018-09-05T05:54:05.882Z,13.60
2018-09-05T05:56:34.054Z,13.60
2018-09-05T05:59:02.216Z,13.70
2018-09-05T06:01:30.384Z,13.70
2018-09-05T06:03:58.610Z,13.70
2018-09-05T06:06:26.834Z,13.80
2018-09-05T06:08:54.930Z,13.80
2018-09-05T06:11:23.108Z,13.80
2018-09-05T06:13:51.274Z,13.90
2018-09-05T06:16:19.428Z,14.00
2018-09-05T06:18:47.597Z,14.10
2018-09-05T06:21:15.754Z,14.20
2018-09-05T06:23:43.936Z,14.30
2018-09-05T06:26:12.078Z,14.40
2018-09-05T06:28:40.250Z,14.50
2018-09-05T06:31:08.506Z,14.60
2018-09-05T06:33:36.639Z,14.70
2018-09-05T06:36:04.797Z,14.80
2018-09-05T06:38:32.971Z,14.80
2018-09-05T06:41:01.134Z,14.90
2018-09-05T06:43:29.293Z,15.00
2018-09-05T06:45:57.462Z,15.00
2018-09-05T06:48:25.645Z,15.00
2018-09-05T06:50:59.365Z,15.10
2018-09-05T06:53:27.529Z,15.10
2018-09-05T06:55:55.677Z,15.20
2018-09-05T06:58:23.944Z,15.30
2018-09-05T07:00:52.162Z,15.50
2018-09-05T07:03:20.750Z,15.60
2018-09-05T07:05:48.994Z,15.70
2018-09-05T07:08:17.176Z,15.70
2018-09-05T07:10:45.334Z,15.80
2018-09-05T07:13:13.527Z,15.90
2018-09-05T07:15:41.763Z,16.00
2018-09-05T07:18:09.905Z,16.00
2018-09-05T07:20:38.102Z,16.00
2018-09-05T07:23:06.486Z,16.10
2018-09-05T07:25:34.673Z,16.20
2018-09-05T07:28:02.837Z,16.20
2018-09-05T07:30:31.023Z,16.30
2018-09-05T07:32:59.252Z,16.40
2018-09-05T07:35:27.544Z,16.40
2018-09-05T07:37:55.666Z,16.50
2018-09-05T07:40:23.847Z,16.60
2018-09-05T07:42:52.079Z,16.70
2018-09-05T07:45:20.306Z,16.70
2018-09-05T07:47:48.470Z,16.80
2018-09-05T07:50:16.653Z,16.90
2018-09-05T07:52:44.820Z,17.00
2018-09-05T07:55:13.036Z,17.10
2018-09-05T07:57:41.216Z,17.10
2018-09-05T08:00:09.424Z,17.20
2018-09-05T08:02:37.591Z,17.30
2018-09-05T08:05:05.766Z,17.40
2018-09-05T08:07:33.950Z,17.50
2018-09-05T08:10:02.183Z,17.60
2018-09-05T08:12:30.377Z,17.70
2018-09-05T08:14:58.590Z,17.70
2018-09-05T08:17:26.754Z,17.80
2018-09-05T08:19:54.951Z,17.90
2018-09-05T08:22:23.113Z,18.10
2018-09-05T08:24:51.502Z,18.10
2018-09-05T08:27:22.365Z,18.20
2018-09-05T08:29:51.120Z,18.30
2018-09-05T08:32:19.302Z,18.40
2018-09-05T08:34:47.497Z,18.70
2018-09-05T08:37:15.988Z,18.80
2018-09-05T08:39:43.970Z,18.90
2018-09-05T08:42:12.177Z,19.00
2018-09-05T08:44:40.421Z,19.10
2018-09-05T08:47:08.486Z,19.30
2018-09-05T08:49:36.645Z,19.30
2018-09-05T08:52:04.830Z,19.50
2018-09-05T08:54:32.991Z,19.70
2018-09-05T08:57:01.146Z,19.70
2018-09-05T08:59:29.314Z,19.80
2018-09-05T09:01:57.497Z,19.90
2018-09-05T09:04:25.691Z,20.00
2018-09-05T09:06:53.970Z,20.10
2018-09-05T09:09:22.151Z,20.20
2018-09-05T09:11:50.326Z,20.30
2018-09-05T09:14:18.558Z,20.30
2018-09-05T09:16:46.733Z,20.30
2018-09-05T09:19:14.890Z,20.40
2018-09-05T09:21:43.046Z,20.40
2018-09-05T09:24:11.222Z,20.50
2018-09-05T09:26:39.398Z,20.60
2018-09-05T09:29:07.564Z,20.70
2018-09-05T09:31:35.746Z,20.90
2018-09-05T09:34:03.914Z,21.10
2018-09-05T09:36:32.084Z,21.30
2018-09-05T09:39:00.232Z,21.40
2018-09-05T09:41:28.371Z,21.50
2018-09-05T09:43:56.517Z,21.50
2018-09-05T09:46:24.693Z,21.50
2018-09-05T09:48:52.895Z,21.40
2018-09-05T09:51:22.689Z,21.40
2018-09-05T09:53:51.595Z,21.40
2018-09-05T09:56:19.746Z,21.40
2018-09-05T09:58:47.905Z,21.40
2018-09-05T10:01:21.417Z,21.40
2018-09-05T10:03:54.974Z,21.50
2018-09-05T10:06:28.433Z,21.50
2018-09-05T10:09:01.895Z,21.40
2018-09-05T10:11:35.426Z,21.40
2018-09-05T10:14:08.877Z,21.30
2018-09-05T10:16:42.242Z,21.30
2018-09-05T10:19:11.322Z,21.20
2018-09-05T10:21:39.502Z,21.20
2018-09-05T10:24:07.662Z,21.30
2018-09-05T10:26:35.859Z,21.60
2018-09-05T10:29:04.107Z,21.70
2018-09-05T10:31:32.260Z,22.00
2018-09-05T10:34:00.407Z,22.10
2018-09-05T10:36:28.546Z,22.20
2018-09-05T10:38:56.690Z,22.30
2018-09-05T10:41:24.845Z,22.50
2018-09-05T10:43:53.018Z,22.60
2018-09-05T10:46:21.169Z,22.70
2018-09-05T10:48:49.316Z,22.80
2018-09-05T10:51:17.455Z,22.80
2018-09-05T10:53:45.614Z,23.00
2018-09-05T10:56:13.762Z,23.00
2018-09-05T10:58:41.928Z,23.00
2018-09-05T11:01:10.087Z,23.00
2018-09-05T11:03:38.647Z,23.00
2018-09-05T11:06:06.790Z,23.20
2018-09-05T11:08:34.941Z,23.40
2018-09-05T11:11:03.072Z,23.40
2018-09-05T11:13:31.226Z,23.40
2018-09-05T11:15:59.379Z,23.50
2018-09-05T11:18:27.594Z,23.50
2018-09-05T11:20:55.730Z,23.50
2018-09-05T11:23:23.882Z,23.50
2018-09-05T11:25:52.026Z,23.60
2018-09-05T11:28:20.271Z,23.60
2018-09-05T11:30:48.433Z,23.50
2018-09-05T11:33:16.581Z,23.50
2018-09-05T11:35:44.743Z,23.60
2018-09-05T11:38:12.902Z,23.60
2018-09-05T11:40:41.043Z,23.60
2018-09-05T11:43:09.194Z,23.60
2018-09-05T11:45:37.350Z,23.80
2018-09-05T11:48:05.506Z,23.80
2018-09-05T11:50:33.666Z,23.90
2018-09-05T11:53:01.817Z,24.00
2018-09-05T11:55:29.955Z,24.10
2018-09-05T11:57:58.118Z,24.20
2018-09-05T12:00:26.289Z,24.20
2018-09-05T12:02:54.418Z,24.20
2018-09-05T12:05:22.774Z,24.20
2018-09-05T12:07:50.914Z,24.40
2018-09-05T12:10:19.176Z,24.50
2018-09-05T12:12:47.313Z,24.50
2018-09-05T12:15:15.494Z,24.50
2018-09-05T12:17:43.631Z,24.40
2018-09-05T12:20:11.821Z,24.40
2018-09-05T12:22:39.962Z,24.40
2018-09-05T12:25:08.179Z,24.40
2018-09-05T12:27:36.319Z,24.50
2018-09-05T12:30:04.494Z,24.50
2018-09-05T12:32:32.644Z,24.60
2018-09-05T12:35:00.790Z,24.70
2018-09-05T12:37:28.946Z,24.70
2018-09-05T12:39:57.070Z,24.70
2018-09-05T12:42:25.222Z,24.60
2018-09-05T12:44:53.368Z,24.50
2018-09-05T12:47:21.502Z,24.50
2018-09-05T12:49:49.701Z,24.50
2018-09-05T12:52:17.838Z,24.50
2018-09-05T12:54:46.009Z,24.50
2018-09-05T12:57:14.178Z,24.60
2018-09-05T12:59:42.311Z,24.70
2018-09-05T13:02:10.487Z,24.50
2018-09-05T13:04:38.619Z,24.50
2018-09-05T13:07:06.770Z,24.40
2018-09-05T13:09:34.896Z,24.30
2018-09-05T13:12:03.042Z,24.40
2018-09-05T13:14:31.180Z,24.40
2018-09-05T13:16:59.319Z,24.60
2018-09-05T13:19:27.450Z,24.60
2018-09-05T13:21:55.586Z,24.50
2018-09-05T13:24:23.731Z,24.50
2018-09-05T13:26:51.938Z,24.40
2018-09-05T13:29:20.082Z,24.40
2018-09-05T13:31:48.246Z,24.40
2018-09-05T13:34:16.368Z,24.30
2018-09-05T13:36:44.545Z,24.30
2018-09-05T13:39:12.690Z,24.30
2018-09-05T13:41:41.186Z,24.30
2018-09-05T13:44:09.384Z,24.40
2018-09-05T13:46:37.748Z,24.30
2018-09-05T13:49:05.965Z,24.30
2018-09-05T13:51:34.137Z,24.20
2018-09-05T13:54:02.291Z,24.20
2018-09-05T13:56:30.547Z,24.20
2018-09-05T13:58:58.661Z,24.10
2018-09-05T14:01:26.816Z,24.10
2018-09-05T14:03:54.997Z,24.10
2018-09-05T14:06:23.234Z,24.10
2018-09-05T14:08:51.402Z,24.10
2018-09-05T14:11:19.571Z,24.00
2018-09-05T14:13:47.748Z,24.00
2018-09-05T14:16:15.885Z,24.10
2018-09-05T14:18:44.074Z,24.10
2018-09-05T14:21:12.238Z,24.20
2018-09-05T14:23:40.396Z,24.30
2018-09-05T14:26:08.565Z,24.40
2018-09-05T14:28:36.743Z,24.50
2018-09-05T14:31:05.020Z,24.70
2018-09-05T14:33:33.168Z,24.80
2018-09-05T14:36:01.314Z,24.80
2018-09-05T14:38:29.477Z,24.80
2018-09-05T14:40:57.644Z,24.80
2018-09-05T14:43:25.821Z,24.70
2018-09-05T14:45:54.100Z,24.60
2018-09-05T14:48:22.305Z,24.50
2018-09-05T14:50:50.446Z,24.50
2018-09-05T14:53:18.600Z,24.50
2018-09-05T14:55:46.761Z,24.70
2018-09-05T14:58:14.923Z,24.80
2018-09-05T15:00:43.090Z,24.80
2018-09-05T15:03:11.307Z,25.00
2018-09-05T15:05:39.474Z,25.00
2018-09-05T15:08:07.617Z,25.10
2018-09-05T15:10:35.775Z,25.00
2018-09-05T15:13:03.922Z,24.90
2018-09-05T15:15:32.086Z,24.70
2018-09-05T15:18:00.237Z,24.70
2018-09-05T15:20:28.397Z,24.60
2018-09-05T15:22:56.555Z,24.50
2018-09-05T15:25:24.711Z,24.40
2018-09-05T15:27:52.858Z,24.30
2018-09-05T15:30:21.014Z,24.30
2018-09-05T15:32:49.174Z,24.20
2018-09-05T15:35:17.354Z,24.10
2018-09-05T15:37:45.508Z,24.10
2018-09-05T15:40:13.671Z,24.00
2018-09-05T15:42:41.820Z,24.00
2018-09-05T15:45:09.982Z,24.00
2018-09-05T15:47:38.138Z,24.00
2018-09-05T15:50:06.310Z,24.00
2018-09-05T15:52:34.461Z,24.10
2018-09-05T15:55:02.613Z,24.20
2018-09-05T15:57:30.825Z,24.30
2018-09-05T15:59:58.946Z,24.30
2018-09-05T16:02:27.109Z,24.20
2018-09-05T16:04:55.267Z,24.20
2018-09-05T16:07:23.413Z,24.20
2018-09-05T16:09:51.646Z,24.10
2018-09-05T16:12:19.810Z,24.00
2018-09-05T16:14:47.977Z,24.00
2018-09-05T16:17:16.131Z,24.00
2018-09-05T16:19:44.295Z,24.00
2018-09-05T16:22:12.495Z,24.00
2018-09-05T16:24:40.713Z,23.90
2018-09-05T16:27:08.909Z,23.90
2018-09-05T16:29:37.074Z,23.90
2018-09-05T16:32:05.275Z,23.90
2018-09-05T16:34:33.412Z,24.00
2018-09-05T16:37:01.573Z,23.90
2018-09-05T16:39:29.745Z,24.00
2018-09-05T16:41:57.893Z,24.00
2018-09-05T16:44:26.042Z,24.10
2018-09-05T16:46:54.213Z,24.10
2018-09-05T16:49:22.409Z,24.00
2018-09-05T16:51:50.569Z,24.00
2018-09-05T16:54:18.721Z,24.00
2018-09-05T16:56:46.891Z,23.90
2018-09-05T16:59:15.043Z,23.90
2018-09-05T17:01:43.202Z,23.90
2018-09-05T17:04:11.359Z,23.80
2018-09-05T17:06:39.543Z,23.70
2018-09-05T17:09:10.158Z,23.50
2018-09-05T17:11:38.349Z,23.40
2018-09-05T17:14:06.527Z,23.30
2018-09-05T17:16:34.689Z,23.20
2018-09-05T17:19:02.858Z,23.20
2018-09-05T17:21:31.005Z,23.10
2018-09-05T17:23:59.157Z,23.00
2018-09-05T17:26:27.325Z,23.00
2018-09-05T17:28:55.498Z,23.00
2018-09-05T17:31:23.668Z,22.90
2018-09-05T17:33:51.877Z,22.80
2018-09-05T17:36:20.034Z,22.70
2018-09-05T17:38:48.182Z,22.70
2018-09-05T17:41:16.350Z,22.60
2018-09-05T17:43:44.509Z,22.50
2018-09-05T17:46:12.653Z,22.40
2018-09-05T17:48:40.813Z,22.30
2018-09-05T17:51:09.114Z,22.20
2018-09-05T17:53:38.416Z,22.10
2018-09-05T17:56:06.522Z,22.00
2018-09-05T17:58:34.712Z,21.90
2018-09-05T18:01:04.570Z,21.80
2018-09-05T18:03:32.730Z,21.70
2018-09-05T18:06:00.870Z,21.70
2018-09-05T18:08:29.037Z,21.60
2018-09-05T18:10:57.175Z,21.60
2018-09-05T18:13:25.349Z,21.50
2018-09-05T18:15:53.488Z,21.40
2018-09-05T18:18:21.642Z,21.30
2018-09-05T18:20:49.832Z,21.20
2018-09-05T18:23:17.955Z,21.10
2018-09-05T18:25:46.109Z,20.90
2018-09-05T18:28:14.265Z,20.80
2018-09-05T18:30:42.480Z,20.70
2018-09-05T18:33:10.679Z,20.50
2018-09-05T18:35:38.810Z,20.40
2018-09-05T18:38:06.980Z,20.30
2018-09-05T18:40:35.084Z,20.20
2018-09-05T18:43:03.218Z,20.20
2018-09-05T18:45:31.350Z,20.10
2018-09-05T18:47:59.485Z,20.00
2018-09-05T18:50:27.610Z,19.90
2018-09-05T18:53:01.172Z,19.80
2018-09-05T18:55:29.296Z,19.60
2018-09-05T18:57:57.433Z,19.50
2018-09-05T19:00:25.659Z,19.50
2018-09-05T19:02:53.792Z,19.40
2018-09-05T19:05:21.920Z,19.30
2018-09-05T19:07:50.057Z,19.30
2018-09-05T19:10:18.201Z,19.20
2018-09-05T19:12:46.426Z,19.10
2018-09-05T19:15:14.557Z,19.00
2018-09-05T19:17:42.678Z,18.90
2018-09-05T19:20:10.815Z,18.70
2018-09-05T19:22:39.496Z,18.50
2018-09-05T19:25:07.630Z,18.40
2018-09-05T19:27:35.793Z,18.20
2018-09-05T19:30:03.925Z,18.10
2018-09-05T19:32:32.069Z,18.10
2018-09-05T19:35:00.210Z,18.00
2018-09-05T19:37:28.346Z,18.00
2018-09-05T19:39:56.494Z,17.90
2018-09-05T19:42:24.633Z,17.90
2018-09-05T19:44:52.758Z,17.90
2018-09-05T19:47:20.874Z,17.80
2018-09-05T19:49:49.005Z,17.80
2018-09-05T19:52:17.218Z,17.70
2018-09-05T19:54:45.451Z,17.60
2018-09-05T19:57:13.564Z,17.60
2018-09-05T19:59:41.741Z,17.60
2018-09-05T20:02:09.912Z,17.50
2018-09-05T20:04:38.042Z,17.50
2018-09-05T20:07:12.976Z,17.40
2018-09-05T20:09:41.130Z,17.40
2018-09-05T20:12:09.277Z,17.40
2018-09-05T20:14:37.414Z,17.40
2018-09-05T20:17:05.561Z,17.40
2018-09-05T20:19:33.679Z,17.40
2018-09-05T20:22:01.810Z,17.40
2018-09-05T20:24:29.953Z,17.40
2018-09-05T20:26:58.053Z,17.40
2018-09-05T20:29:26.433Z,17.30
2018-09-05T20:31:54.662Z,17.20
2018-09-05T20:34:22.800Z,17.20
2018-09-05T20:36:50.945Z,17.20
2018-09-05T20:39:19.190Z,17.30
2018-09-05T20:41:47.342Z,17.30
2018-09-05T20:44:15.482Z,17.40
2018-09-05T20:46:43.638Z,17.40
2018-09-05T20:49:11.813Z,17.40
2018-09-05T20:51:39.963Z,17.40
2018-09-05T20:54:08.102Z,17.30
2018-09-05T20:56:36.322Z,17.10
2018-09-05T20:59:04.563Z,17.10
2018-09-05T21:01:32.882Z,17.10
2018-09-05T21:04:01.126Z,17.10
2018-09-05T21:06:29.365Z,17.10
2018-09-05T21:08:57.514Z,17.10
2018-09-05T21:11:25.753Z,17.10
2018-09-05T21:13:53.963Z,17.10
2018-09-05T21:16:22.102Z,17.10
2018-09-05T21:18:50.530Z,17.10
2018-09-05T21:21:18.685Z,17.10
2018-09-05T21:23:46.818Z,17.10
2018-09-05T21:26:14.962Z,17.10
2018-09-05T21:28:43.110Z,17.10
2018-09-05T21:31:11.256Z,17.10
2018-09-05T21:33:39.394Z,17.10
2018-09-05T21:36:07.611Z,17.00
2018-09-05T21:38:35.707Z,16.90
2018-09-05T21:41:03.897Z,16.90
2018-09-05T21:43:32.053Z,16.80
2018-09-05T21:46:00.202Z,16.70
2018-09-05T21:48:28.422Z,16.60
2018-09-05T21:50:56.579Z,16.50
2018-09-05T21:53:24.713Z,16.50
2018-09-05T21:55:52.861Z,16.40
2018-09-05T21:58:21.022Z,16.40
2018-09-05T22:00:49.201Z,16.40
2018-09-05T22:03:17.317Z,16.30
2018-09-05T22:05:45.470Z,16.30
2018-09-05T22:08:13.615Z,16.30
2018-09-05T22:10:41.755Z,16.20
2018-09-05T22:13:16.673Z,16.30
2018-09-05T22:15:46.329Z,16.00
2018-09-05T22:18:15.055Z,15.90
2018-09-05T22:20:43.186Z,15.80
2018-09-05T22:23:11.382Z,15.80
2018-09-05T22:25:39.514Z,15.80
2018-09-05T22:28:07.657Z,15.80
2018-09-05T22:30:35.792Z,15.80
2018-09-05T22:33:04.201Z,15.80
